createdAt,value
2023-04-21T01:41:36.926Z,24.60
2023-04-21T01:44:07.819Z,24.03
2023-04-21T01:46:38.744Z,24.07
2023-04-21T01:49:09.013Z,25.70
2023-04-21T01:51:39.259Z,23.57
2023-04-21T01:54:09.704Z,25.03
2023-04-21T01:56:50.148Z,26.37
2023-04-21T01:59:21.684Z,27.00
2023-04-21T02:01:52.049Z,27.73
2023-04-21T02:04:22.395Z,24.70
2023-04-21T02:06:52.721Z,25.67
2023-04-21T02:09:22.924Z,27.67
2023-04-21T02:11:58.820Z,27.57
2023-04-21T02:14:36.700Z,24.07
2023-04-21T02:17:07.189Z,27.40
2023-04-21T02:19:37.854Z,24.27
2023-04-21T02:22:08.548Z,26.50
2023-04-21T02:24:38.716Z,24.30
2023-04-21T02:27:11.532Z,25.27
2023-04-21T02:29:41.725Z,24.67
2023-04-21T02:32:22.357Z,27.77
2023-04-21T02:34:55.611Z,28.87
2023-04-21T02:37:26.891Z,26.87
2023-04-21T02:39:57.051Z,27.40
2023-04-21T02:42:29.850Z,28.40
2023-04-21T02:45:00.067Z,30.73
2023-04-21T02:47:30.396Z,28.67
2023-04-21T02:50:00.679Z,30.50
2023-04-21T02:52:30.918Z,27.77
2023-04-21T02:55:01.121Z,28.30
2023-04-21T02:57:37.909Z,30.60
2023-04-21T03:00:12.654Z,29.43
2023-04-21T03:02:43.035Z,31.57
2023-04-21T03:05:14.041Z,28.17
2023-04-21T03:07:45.462Z,30.13
2023-04-21T03:10:15.880Z,30.07
2023-04-21T03:12:48.857Z,29.40
2023-04-21T03:15:19.691Z,30.80
2023-04-21T03:17:51.000Z,29.87
2023-04-21T03:20:22.710Z,33.30
2023-04-21T03:22:52.914Z,30.47
2023-04-21T03:25:23.449Z,33.50
2023-04-21T03:27:56.291Z,32.67
2023-04-21T03:30:27.815Z,32.00
2023-04-21T03:32:58.974Z,33.93
2023-04-21T03:35:29.461Z,33.43
2023-04-21T03:38:03.835Z,34.80
2023-04-21T03:40:34.530Z,33.20
2023-04-21T03:43:07.366Z,33.90
2023-04-21T03:45:38.935Z,33.40
2023-04-21T03:48:09.729Z,34.87
2023-04-21T03:50:41.199Z,36.80
2023-04-21T03:53:11.386Z,36.70
2023-04-21T03:55:41.585Z,36.60
2023-04-21T03:58:14.497Z,35.37
2023-04-21T04:00:44.722Z,34.50
2023-04-21T04:03:15.113Z,34.20
2023-04-21T04:05:45.539Z,36.17
2023-04-21T04:47:00.494Z,28.97
2023-04-21T12:55:24.416Z,5.13
2023-04-21T12:57:57.468Z,6.32
2023-04-21T13:00:28.587Z,8.40
2023-04-21T13:02:58.944Z,5.45
2023-04-21T13:05:29.323Z,6.20
2023-04-21T13:07:59.585Z,6.25
2023-04-21T13:10:29.851Z,6.30
2023-04-21T13:13:02.694Z,5.88
2023-04-21T13:15:32.899Z,4.85
2023-04-21T13:18:03.157Z,4.55
2023-04-21T13:20:33.430Z,3.90
2023-04-21T13:23:03.704Z,4.90
2023-04-21T13:25:35.870Z,3.63
2023-04-21T13:28:09.588Z,3.45
2023-04-21T13:30:39.885Z,4.25
2023-04-21T13:33:11.933Z,4.40
2023-04-21T13:35:42.275Z,4.70
2023-04-21T13:38:12.527Z,4.38
2023-04-21T13:40:43.742Z,4.25
2023-04-21T13:43:18.131Z,4.47
2023-04-21T13:45:50.056Z,5.20
2023-04-21T13:48:20.467Z,5.07
2023-04-21T13:50:50.826Z,5.10
2023-04-21T13:53:22.147Z,4.60
2023-04-21T13:55:53.045Z,4.43
2023-04-21T13:58:26.049Z,4.57
2023-04-21T14:00:56.263Z,3.88
2023-04-21T14:03:26.603Z,5.20
2023-04-21T14:05:58.044Z,4.75
2023-04-21T14:08:28.637Z,5.40
2023-04-21T14:10:59.506Z,5.38
2023-04-21T14:13:40.161Z,4.93
2023-04-21T14:16:18.454Z,6.15
2023-04-21T14:18:48.705Z,4.50
2023-04-21T14:21:18.855Z,5.43
2023-04-21T14:23:49.130Z,5.63
2023-04-21T14:26:19.382Z,5.85
2023-04-21T14:28:53.004Z,4.75
2023-04-21T14:31:23.279Z,4.78
2023-04-21T14:33:53.589Z,5.38
2023-04-21T14:36:23.941Z,5.00
2023-04-21T14:38:54.297Z,5.07
2023-04-21T14:41:24.574Z,5.47
2023-04-21T14:43:59.334Z,6.22
2023-04-21T14:46:30.074Z,6.95
2023-04-21T14:49:00.467Z,5.75
2023-04-21T14:51:32.093Z,5.97
2023-04-21T14:54:02.329Z,7.15
2023-04-21T14:56:32.763Z,6.55
2023-04-21T14:59:05.621Z,6.72
2023-04-21T15:01:36.017Z,7.07
2023-04-21T15:04:06.700Z,6.90
2023-04-21T15:06:37.143Z,6.18
2023-04-21T21:48:23.949Z,8.63
2023-04-21T21:50:54.234Z,7.40
2023-04-21T21:53:24.431Z,8.07
2023-04-21T21:55:54.624Z,7.37
2023-04-21T21:58:24.970Z,9.13
2023-04-21T22:00:55.235Z,8.73
2023-04-21T22:03:32.618Z,9.53
2023-04-21T22:06:03.637Z,9.23
2023-04-21T22:08:33.872Z,8.23
2023-04-21T22:11:05.995Z,10.13
2023-04-21T22:13:36.365Z,9.63
2023-04-21T22:16:07.150Z,8.63
2023-04-21T22:18:40.128Z,7.43
2023-04-21T22:21:10.412Z,5.90
2023-04-21T22:23:40.668Z,6.47
2023-04-21T22:26:13.985Z,7.27
2023-04-21T22:28:44.165Z,7.53
2023-04-21T22:31:14.445Z,6.97
2023-04-21T22:33:47.244Z,6.57
2023-04-21T22:36:17.490Z,7.13
2023-04-21T22:38:47.672Z,6.70
2023-04-21T22:41:18.019Z,6.00
2023-04-21T22:43:48.221Z,6.50
2023-04-21T22:46:18.713Z,5.03
2023-04-21T22:48:54.614Z,5.07
2023-04-21T22:51:24.798Z,4.67
2023-04-21T22:53:54.966Z,4.77
2023-04-21T22:56:25.233Z,6.10
2023-04-21T22:58:55.940Z,4.27
2023-04-21T23:01:26.452Z,5.50
2023-04-21T23:03:59.479Z,4.33
2023-04-21T23:06:29.821Z,3.93
2023-04-21T23:09:00.036Z,3.97
2023-04-21T23:11:30.284Z,4.53
2023-04-21T23:14:02.129Z,4.30
2023-04-21T23:16:32.489Z,6.40
2023-04-21T23:19:05.381Z,4.57
2023-04-21T23:21:39.209Z,4.37
2023-04-21T23:24:10.180Z,4.70
2023-04-21T23:26:44.244Z,4.10
2023-04-21T23:29:14.427Z,4.87
2023-04-21T23:31:44.873Z,4.33
2023-04-21T23:34:18.031Z,4.37
2023-04-21T23:36:48.268Z,4.87
2023-04-21T23:39:18.470Z,4.80
2023-04-21T23:41:48.657Z,6.37
2023-04-21T23:44:20.157Z,4.60
2023-04-21T23:46:50.323Z,6.17
2023-04-21T23:49:27.918Z,5.40
2023-04-21T23:51:59.587Z,5.10
2023-04-21T23:54:29.891Z,4.83
2023-04-21T23:57:00.146Z,4.77
